Mendon, Ohio
Current Conditions -  °F | °C
As of 10:53 PM on Sunday 23 Nov 2014 (Local Time) from KAXV Reporting Station
Light Rain Light Rain  
Wind Chill: 54°   Ceiling: 900
Heat Index: 54°   Visibility: 10mi
Dew Point: 54°   Wind: 16mph
Humidity: 100%   Direction: 150°SSE
Pressure: 29.26"   Gusts: 25mph
Location:  40.67°N, 84.52°W
Report Text: KAXV 240353Z AUTO 15014G22KT 10SM -RA OVC009 12/12 A2926 RMK AO2
Loading
Personal Weather Stations






























Interactive Weather Map New forecast layout! Learn more

10-Day Weather Forecast

Advertisements
Track Severe Weather on mobile